sensor_id;sensor_type;location;lat;lon;timestamp;pressure;altitude;pressure_sealevel;temperature;humidity
64739;BME280;51175;51.186;0.276;2023-06-19T00:00:05;100491.94;;;23.70;55.77
64739;BME280;51175;51.186;0.276;2023-06-19T00:00:42;100492.72;;;23.71;55.82
64739;BME280;51175;51.186;0.276;2023-06-19T00:01:13;100488.44;;;23.69;55.70
64739;BME280;51175;51.186;0.276;2023-06-19T00:01:43;100491.94;;;23.70;55.85
64739;BME280;51175;51.186;0.276;2023-06-19T00:02:14;100493.84;;;23.69;55.63
64739;BME280;51175;51.186;0.276;2023-06-19T00:02:44;100492.28;;;23.68;55.76
64739;BME280;51175;51.186;0.276;2023-06-19T00:03:18;100489.59;;;23.68;55.76
64739;BME280;51175;51.186;0.276;2023-06-19T00:03:48;100492.28;;;23.68;55.81
64739;BME280;51175;51.186;0.276;2023-06-19T00:04:19;100493.44;;;23.67;55.89
64739;BME280;51175;51.186;0.276;2023-06-19T00:04:49;100498.47;;;23.69;55.70
64739;BME280;51175;51.186;0.276;2023-06-19T00:05:19;100496.88;;;23.68;55.76
64739;BME280;51175;51.186;0.276;2023-06-19T00:05:53;100499.59;;;23.68;55.63
64739;BME280;51175;51.186;0.276;2023-06-19T00:06:23;100506.91;;;23.67;55.74
64739;BME280;51175;51.186;0.276;2023-06-19T00:06:54;100499.16;;;23.66;55.79
64739;BME280;51175;51.186;0.276;2023-06-19T00:07:27;100497.25;;;23.66;55.74
64739;BME280;51175;51.186;0.276;2023-06-19T00:07:57;100505.31;;;23.66;55.84
64739;BME280;51175;51.186;0.276;2023-06-19T00:08:27;100505.69;;;23.65;55.84
64739;BME280;51175;51.186;0.276;2023-06-19T00:08:58;100504.53;;;23.66;55.96
64739;BME280;51175;51.186;0.276;2023-06-19T00:09:28;100509.94;;;23.66;55.82
64739;BME280;51175;51.186;0.276;2023-06-19T00:09:59;100502.97;;;23.65;55.79
64739;BME280;51175;51.186;0.276;2023-06-19T00:10:29;100509.16;;;23.65;55.72
64739;BME280;51175;51.186;0.276;2023-06-19T00:10:59;100505.69;;;23.65;55.76
64739;BME280;51175;51.186;0.276;2023-06-19T00:11:30;100502.19;;;23.64;55.77
64739;BME280;51175;51.186;0.276;2023-06-19T00:12:00;100500.28;;;23.65;55.73
64739;BME280;51175;51.186;0.276;2023-06-19T00:12:32;100508.72;;;23.63;55.76
64739;BME280;51175;51.186;0.276;2023-06-19T00:13:03;100504.13;;;23.64;56.01
64739;BME280;51175;51.186;0.276;2023-06-19T00:13:33;100508.72;;;23.63;55.91
64739;BME280;51175;51.186;0.276;2023-06-19T00:14:06;100506.03;;;23.63;55.91
64739;BME280;51175;51.186;0.276;2023-06-19T00:14:37;100511.41;;;23.63;55.79
64739;BME280;51175;51.186;0.276;2023-06-19T00:15:08;100512.22;;;23.64;55.84
64739;BME280;51175;51.186;0.276;2023-06-19T00:15:39;100519.50;;;23.63;55.83
64739;BME280;51175;51.186;0.276;2023-06-19T00:16:10;100516.81;;;23.63;55.92
64739;BME280;51175;51.186;0.276;2023-06-19T00:16:41;100521.41;;;23.63;55.66
64739;BME280;51175;51.186;0.276;2023-06-19T00:17:11;100518.72;;;23.63;55.85
64739;BME280;51175;51.186;0.276;2023-06-19T00:17:42;100510.63;;;23.63;55.94
64739;BME280;51175;51.186;0.276;2023-06-19T00:18:12;100520.66;;;23.62;55.83
64739;BME280;51175;51.186;0.276;2023-06-19T00:18:46;100509.88;;;23.62;55.74
64739;BME280;51175;51.186;0.276;2023-06-19T00:19:16;100509.88;;;23.62;55.90
64739;BME280;51175;51.186;0.276;2023-06-19T00:19:47;100519.84;;;23.62;55.68
64739;BME280;51175;51.186;0.276;2023-06-19T00:20:18;100510.63;;;23.63;55.74
64739;BME280;51175;51.186;0.276;2023-06-19T00:20:49;100512.91;;;23.61;55.80
64739;BME280;51175;51.186;0.276;2023-06-19T00:21:19;100521.00;;;23.61;56.00
64739;BME280;51175;51.186;0.276;2023-06-19T00:21:50;100519.06;;;23.61;55.77
64739;BME280;51175;51.186;0.276;2023-06-19T00:22:20;100519.06;;;23.61;55.94
64739;BME280;51175;51.186;0.276;2023-06-19T00:22:51;100515.59;;;23.61;55.97
64739;BME280;51175;51.186;0.276;2023-06-19T00:23:22;100516.72;;;23.60;55.88
64739;BME280;51175;51.186;0.276;2023-06-19T00:23:53;100515.16;;;23.59;55.70
64739;BME280;51175;51.186;0.276;2023-06-19T00:24:23;100524.03;;;23.59;56.09
64739;BME280;51175;51.186;0.276;2023-06-19T00:24:54;100522.09;;;23.60;55.79
64739;BME280;51175;51.186;0.276;2023-06-19T00:25:24;100520.56;;;23.59;55.80
64739;BME280;51175;51.186;0.276;2023-06-19T00:25:55;100519.00;;;23.58;55.97
64739;BME280;51175;51.186;0.276;2023-06-19T00:26:25;100523.25;;;23.59;55.81
64739;BME280;51175;51.186;0.276;2023-06-19T00:26:55;100525.94;;;23.59;55.70
64739;BME280;51175;51.186;0.276;2023-06-19T00:27:26;100519.00;;;23.58;56.06
64739;BME280;51175;51.186;0.276;2023-06-19T00:27:56;100520.91;;;23.57;55.94
64739;BME280;51175;51.186;0.276;2023-06-19T00:28:27;100525.16;;;23.58;55.92
64739;BME280;51175;51.186;0.276;2023-06-19T00:28:58;100524.38;;;23.58;56.05
64739;BME280;51175;51.186;0.276;2023-06-19T00:29:29;100526.28;;;23.57;55.82
64739;BME280;51175;51.186;0.276;2023-06-19T00:29:59;100522.03;;;23.56;55.83
64739;BME280;51175;51.186;0.276;2023-06-19T00:30:31;100523.59;;;23.57;55.67
64739;BME280;51175;51.186;0.276;2023-06-19T00:31:05;100529.78;;;23.58;55.91
64739;BME280;51175;51.186;0.276;2023-06-19T00:31:37;100519.34;;;23.56;55.83
64739;BME280;51175;51.186;0.276;2023-06-19T00:32:07;100522.81;;;23.56;55.96
64739;BME280;51175;51.186;0.276;2023-06-19T00:32:38;100522.81;;;23.56;55.72
64739;BME280;51175;51.186;0.276;2023-06-19T00:33:16;100525.84;;;23.55;55.91
64739;BME280;51175;51.186;0.276;2023-06-19T00:33:47;100536.63;;;23.55;55.96
64739;BME280;51175;51.186;0.276;2023-06-19T00:34:20;100523.16;;;23.55;55.94
64739;BME280;51175;51.186;0.276;2023-06-19T00:34:54;100532.38;;;23.54;55.87
64739;BME280;51175;51.186;0.276;2023-06-19T00:35:24;100524.28;;;23.54;55.92
64739;BME280;51175;51.186;0.276;2023-06-19T00:35:55;100530.81;;;23.53;55.90
64739;BME280;51175;51.186;0.276;2023-06-19T00:36:26;100527.00;;;23.54;55.93
64739;BME280;51175;51.186;0.276;2023-06-19T00:36:56;100528.88;;;23.53;55.94
64739;BME280;51175;51.186;0.276;2023-06-19T00:37:28;100528.47;;;23.51;55.82
64739;BME280;51175;51.186;0.276;2023-06-19T00:38:02;100525.00;;;23.51;55.96
64739;BME280;51175;51.186;0.276;2023-06-19T00:38:33;100530.38;;;23.51;56.07
64739;BME280;51175;51.186;0.276;2023-06-19T00:39:03;100529.59;;;23.50;55.90
64739;BME280;51175;51.186;0.276;2023-06-19T00:39:34;100529.59;;;23.50;55.83
64739;BME280;51175;51.186;0.276;2023-06-19T00:40:07;100529.59;;;23.50;56.10
64739;BME280;51175;51.186;0.276;2023-06-19T00:40:39;100530.72;;;23.49;56.02
64739;BME280;51175;51.186;0.276;2023-06-19T00:41:10;100529.94;;;23.49;55.97
64739;BME280;51175;51.186;0.276;2023-06-19T00:41:42;100528.38;;;23.48;56.04
64739;BME280;51175;51.186;0.276;2023-06-19T00:42:13;100531.88;;;23.48;55.76
64739;BME280;51175;51.186;0.276;2023-06-19T00:42:43;100533.75;;;23.48;56.02
64739;BME280;51175;51.186;0.276;2023-06-19T00:43:14;100529.50;;;23.47;56.01
64739;BME280;51175;51.186;0.276;2023-06-19T00:43:44;100532.97;;;23.47;55.99
64739;BME280;51175;51.186;0.276;2023-06-19T00:44:14;100531.88;;;23.48;55.84
64739;BME280;51175;51.186;0.276;2023-06-19T00:44:45;100527.59;;;23.47;55.87
64739;BME280;51175;51.186;0.276;2023-06-19T00:45:16;100530.28;;;23.47;56.07
64739;BME280;51175;51.186;0.276;2023-06-19T00:45:46;100524.88;;;23.47;56.16
64739;BME280;51175;51.186;0.276;2023-06-19T00:46:17;100530.28;;;23.47;55.95
64739;BME280;51175;51.186;0.276;2023-06-19T00:46:51;100528.38;;;23.48;55.97
64739;BME280;51175;51.186;0.276;2023-06-19T00:47:24;100529.16;;;23.48;55.97
64739;BME280;51175;51.186;0.276;2023-06-19T00:47:57;100529.50;;;23.47;55.98
64739;BME280;51175;51.186;0.276;2023-06-19T00:48:30;100530.28;;;23.47;55.96
64739;BME280;51175;51.186;0.276;2023-06-19T00:49:01;100526.81;;;23.47;55.73
64739;BME280;51175;51.186;0.276;2023-06-19T00:49:32;100527.59;;;23.47;55.83
64739;BME280;51175;51.186;0.276;2023-06-19T00:50:04;100526.03;;;23.46;55.85
64739;BME280;51175;51.186;0.276;2023-06-19T00:50:34;100526.03;;;23.46;55.90
64739;BME280;51175;51.186;0.276;2023-06-19T00:51:07;100527.94;;;23.46;56.02
64739;BME280;51175;51.186;0.276;2023-06-19T00:51:38;100525.25;;;23.46;56.03
64739;BME280;51175;51.186;0.276;2023-06-19T00:52:08;100523.69;;;23.44;55.84
64739;BME280;51175;51.186;0.276;2023-06-19T00:52:39;100530.97;;;23.44;55.96
64739;BME280;51175;51.186;0.276;2023-06-19T00:53:09;100529.06;;;23.44;56.02
64739;BME280;51175;51.186;0.276;2023-06-19T00:53:40;100524.47;;;23.45;55.80
64739;BME280;51175;51.186;0.276;2023-06-19T00:54:11;100527.16;;;23.45;55.93
64739;BME280;51175;51.186;0.276;2023-06-19T00:54:41;100530.97;;;23.44;55.89
64739;BME280;51175;51.186;0.276;2023-06-19T00:55:12;100522.88;;;23.44;56.23
64739;BME280;51175;51.186;0.276;2023-06-19T00:55:44;100530.22;;;23.43;56.05
64739;BME280;51175;51.186;0.276;2023-06-19T00:56:15;100530.22;;;23.43;55.95
64739;BME280;51175;51.186;0.276;2023-06-19T00:56:48;100530.97;;;23.44;56.08
64739;BME280;51175;51.186;0.276;2023-06-19T00:57:19;100526.72;;;23.43;56.03
64739;BME280;51175;51.186;0.276;2023-06-19T00:57:50;100524.81;;;23.43;56.11
64739;BME280;51175;51.186;0.276;2023-06-19T00:58:23;100529.41;;;23.43;56.04
64739;BME280;51175;51.186;0.276;2023-06-19T00:58:54;100522.47;;;23.42;56.03
64739;BME280;51175;51.186;0.276;2023-06-19T00:59:25;100519.78;;;23.42;56.18
64739;BME280;51175;51.186;0.276;2023-06-19T00:59:57;100531.31;;;23.42;55.96
64739;BME280;51175;51.186;0.276;2023-06-19T01:00:28;100527.88;;;23.42;56.12
64739;BME280;51175;51.186;0.276;2023-06-19T01:00:58;100524.38;;;23.41;55.96
64739;BME280;51175;51.186;0.276;2023-06-19T01:01:29;100520.88;;;23.41;56.06
64739;BME280;51175;51.186;0.276;2023-06-19T01:02:00;100518.97;;;23.41;56.23
64739;BME280;51175;51.186;0.276;2023-06-19T01:02:30;100523.59;;;23.41;56.21
64739;BME280;51175;51.186;0.276;2023-06-19T01:03:01;100526.28;;;23.41;55.97
64739;BME280;51175;51.186;0.276;2023-06-19T01:03:32;100522.03;;;23.40;56.06
64739;BME280;51175;51.186;0.276;2023-06-19T01:04:03;100526.28;;;23.41;56.31
64739;BME280;51175;51.186;0.276;2023-06-19T01:04:33;100524.72;;;23.40;56.06
64739;BME280;51175;51.186;0.276;2023-06-19T01:05:04;100528.22;;;23.40;56.09
64739;BME280;51175;51.186;0.276;2023-06-19T01:05:35;100521.22;;;23.39;56.06
64739;BME280;51175;51.186;0.276;2023-06-19T01:06:10;100529.31;;;23.39;55.99
64739;BME280;51175;51.186;0.276;2023-06-19T01:06:55;100530.09;;;23.40;56.03
64739;BME280;51175;51.186;0.276;2023-06-19T01:09:05;100530.78;;;23.37;56.18
64739;BME280;51175;51.186;0.276;2023-06-19T01:09:45;100533.47;;;23.37;56.18
64739;BME280;51175;51.186;0.276;2023-06-19T01:10:20;100529.97;;;23.36;56.06
64739;BME280;51175;51.186;0.276;2023-06-19T01:10:54;100528.09;;;23.37;56.17
64739;BME280;51175;51.186;0.276;2023-06-19T01:11:31;100533.81;;;23.35;56.15
64739;BME280;51175;51.186;0.276;2023-06-19T01:12:12;100535.38;;;23.36;55.97
64739;BME280;51175;51.186;0.276;2023-06-19T01:12:50;100525.72;;;23.35;56.01
64739;BME280;51175;51.186;0.276;2023-06-19T01:13:58;100533.81;;;23.35;56.10
64739;BME280;51175;51.186;0.276;2023-06-19T01:14:57;100533.03;;;23.35;56.19
64739;BME280;51175;51.186;0.276;2023-06-19T01:15:28;100536.06;;;23.33;56.39
64739;BME280;51175;51.186;0.276;2023-06-19T01:16:01;100539.91;;;23.32;56.16
64739;BME280;51175;51.186;0.276;2023-06-19T01:16:33;100533.38;;;23.33;56.13
64739;BME280;51175;51.186;0.276;2023-06-19T01:17:04;100532.56;;;23.32;56.22
64739;BME280;51175;51.186;0.276;2023-06-19T01:17:35;100535.28;;;23.32;56.32
64739;BME280;51175;51.186;0.276;2023-06-19T01:18:07;100536.41;;;23.31;56.12
64739;BME280;51175;51.186;0.276;2023-06-19T01:18:37;100534.50;;;23.32;56.25
64739;BME280;51175;51.186;0.276;2023-06-19T01:19:10;100534.50;;;23.32;56.01
64739;BME280;51175;51.186;0.276;2023-06-19T01:19:42;100536.41;;;23.31;56.33
64739;BME280;51175;51.186;0.276;2023-06-19T01:20:13;100532.94;;;23.31;56.11
64739;BME280;51175;51.186;0.276;2023-06-19T01:20:44;100537.56;;;23.30;56.21
64739;BME280;51175;51.186;0.276;2023-06-19T01:21:16;100527.88;;;23.29;56.12
64739;BME280;51175;51.186;0.276;2023-06-19T01:21:48;100534.06;;;23.30;56.10
64739;BME280;51175;51.186;0.276;2023-06-19T01:22:29;100540.59;;;23.29;56.22
64739;BME280;51175;51.186;0.276;2023-06-19T01:23:09;100535.97;;;23.29;56.19
64739;BME280;51175;51.186;0.276;2023-06-19T01:23:40;100537.09;;;23.28;56.20
64739;BME280;51175;51.186;0.276;2023-06-19T01:24:11;100542.50;;;23.28;56.34
64739;BME280;51175;51.186;0.276;2023-06-19T01:24:41;100537.09;;;23.28;56.27
64739;BME280;51175;51.186;0.276;2023-06-19T01:25:12;100542.50;;;23.28;56.19
64739;BME280;51175;51.186;0.276;2023-06-19T01:25:45;100540.59;;;23.29;56.45
64739;BME280;51175;51.186;0.276;2023-06-19T01:26:16;100540.59;;;23.29;56.16
64739;BME280;51175;51.186;0.276;2023-06-19T01:26:48;100541.69;;;23.28;56.13
64739;BME280;51175;51.186;0.276;2023-06-19T01:27:19;100539.00;;;23.28;55.84
64739;BME280;51175;51.186;0.276;2023-06-19T01:27:50;100545.97;;;23.29;56.22
64739;BME280;51175;51.186;0.276;2023-06-19T01:28:20;100539.78;;;23.28;56.00
64739;BME280;51175;51.186;0.276;2023-06-19T01:28:51;100539.00;;;23.28;56.14
64739;BME280;51175;51.186;0.276;2023-06-19T01:29:21;100544.38;;;23.28;56.17
64739;BME280;51175;51.186;0.276;2023-06-19T01:29:52;100544.38;;;23.28;56.25
64739;BME280;51175;51.186;0.276;2023-06-19T01:30:25;100545.97;;;23.29;55.98
64739;BME280;51175;51.186;0.276;2023-06-19T01:30:57;100539.78;;;23.28;56.23
64739;BME280;51175;51.186;0.276;2023-06-19T01:31:34;100549.03;;;23.27;56.20
64739;BME280;51175;51.186;0.276;2023-06-19T01:32:10;100547.09;;;23.28;56.26
64739;BME280;51175;51.186;0.276;2023-06-19T01:33:27;100545.88;;;23.25;56.07
64739;BME280;51175;51.186;0.276;2023-06-19T01:33:59;100544.75;;;23.26;56.12
64739;BME280;51175;51.186;0.276;2023-06-19T01:34:33;100543.97;;;23.26;56.23
64739;BME280;51175;51.186;0.276;2023-06-19T01:35:04;100540.50;;;23.25;56.14
64739;BME280;51175;51.186;0.276;2023-06-19T01:35:38;100538.94;;;23.24;56.16
64739;BME280;51175;51.186;0.276;2023-06-19T01:36:10;100543.19;;;23.25;56.10
64739;BME280;51175;51.186;0.276;2023-06-19T01:36:41;100539.69;;;23.25;56.23
64739;BME280;51175;51.186;0.276;2023-06-19T01:37:12;100542.38;;;23.25;56.24
64739;BME280;51175;51.186;0.276;2023-06-19T01:37:43;100544.31;;;23.24;56.48
64739;BME280;51175;51.186;0.276;2023-06-19T01:38:16;100545.44;;;23.23;56.15
64739;BME280;51175;51.186;0.276;2023-06-19T01:38:48;100544.31;;;23.24;56.31
64739;BME280;51175;51.186;0.276;2023-06-19T01:39:19;100542.72;;;23.23;56.21
64739;BME280;51175;51.186;0.276;2023-06-19T01:39:50;100548.13;;;23.23;56.14
64739;BME280;51175;51.186;0.276;2023-06-19T01:40:21;100540.03;;;23.23;56.21
64739;BME280;51175;51.186;0.276;2023-06-19T01:40:56;100547.00;;;23.24;56.22
64739;BME280;51175;51.186;0.276;2023-06-19T01:41:29;100543.53;;;23.24;56.21
64739;BME280;51175;51.186;0.276;2023-06-19T01:42:00;100544.31;;;23.24;56.26
64739;BME280;51175;51.186;0.276;2023-06-19T01:42:32;100543.53;;;23.24;56.15
64739;BME280;51175;51.186;0.276;2023-06-19T01:43:05;100543.53;;;23.24;56.09
64739;BME280;51175;51.186;0.276;2023-06-19T01:43:36;100540.03;;;23.23;56.04
64739;BME280;51175;51.186;0.276;2023-06-19T01:44:08;100537.34;;;23.23;56.17
64739;BME280;51175;51.186;0.276;2023-06-19T01:44:38;100537.34;;;23.23;56.27
64739;BME280;51175;51.186;0.276;2023-06-19T01:45:10;100532.75;;;23.24;56.29
64739;BME280;51175;51.186;0.276;2023-06-19T01:45:41;100538.13;;;23.24;55.95
64739;BME280;51175;51.186;0.276;2023-06-19T01:46:12;100544.31;;;23.24;56.07
64739;BME280;51175;51.186;0.276;2023-06-19T01:46:42;100536.25;;;23.24;56.21
64739;BME280;51175;51.186;0.276;2023-06-19T01:47:13;100532.75;;;23.24;56.15
64739;BME280;51175;51.186;0.276;2023-06-19T01:47:45;100532.75;;;23.24;56.12
64739;BME280;51175;51.186;0.276;2023-06-19T01:48:16;100535.44;;;23.24;56.26
64739;BME280;51175;51.186;0.276;2023-06-19T01:48:46;100538.13;;;23.24;56.05
64739;BME280;51175;51.186;0.276;2023-06-19T01:49:17;100533.09;;;23.22;55.90
64739;BME280;51175;51.186;0.276;2023-06-19T01:49:48;100540.03;;;23.23;56.14
64739;BME280;51175;51.186;0.276;2023-06-19T01:50:21;100531.97;;;23.23;56.17
64739;BME280;51175;51.186;0.276;2023-06-19T01:50:51;100533.88;;;23.23;56.16
64739;BME280;51175;51.186;0.276;2023-06-19T01:51:22;100531.97;;;23.23;56.15
64739;BME280;51175;51.186;0.276;2023-06-19T01:51:53;100539.63;;;23.21;56.06
64739;BME280;51175;51.186;0.276;2023-06-19T01:52:24;100535.78;;;23.22;56.12
64739;BME280;51175;51.186;0.276;2023-06-19T01:52:55;100533.88;;;23.23;56.26
64739;BME280;51175;51.186;0.276;2023-06-19T01:53:25;100535.78;;;23.22;56.18
64739;BME280;51175;51.186;0.276;2023-06-19T01:53:56;100535.78;;;23.22;56.05
64739;BME280;51175;51.186;0.276;2023-06-19T01:54:26;100535.78;;;23.22;56.06
64739;BME280;51175;51.186;0.276;2023-06-19T01:54:57;100537.69;;;23.22;56.00
64739;BME280;51175;51.186;0.276;2023-06-19T01:55:28;100539.63;;;23.21;55.92
64739;BME280;51175;51.186;0.276;2023-06-19T01:55:58;100537.69;;;23.22;56.10
64739;BME280;51175;51.186;0.276;2023-06-19T01:56:29;100541.19;;;23.22;56.22
64739;BME280;51175;51.186;0.276;2023-06-19T01:57:00;100540.38;;;23.22;56.08
64739;BME280;51175;51.186;0.276;2023-06-19T01:57:31;100543.09;;;23.22;56.04
64739;BME280;51175;51.186;0.276;2023-06-19T01:58:02;100540.38;;;23.22;56.06
64739;BME280;51175;51.186;0.276;2023-06-19T01:58:32;100545.78;;;23.22;55.98
64739;BME280;51175;51.186;0.276;2023-06-19T01:59:03;100544.22;;;23.21;56.04
64739;BME280;51175;51.186;0.276;2023-06-19T01:59:33;100540.72;;;23.20;56.10
64739;BME280;51175;51.186;0.276;2023-06-19T02:00:04;100546.13;;;23.20;55.96
64739;BME280;51175;51.186;0.276;2023-06-19T02:00:37;100540.72;;;23.20;56.02
64739;BME280;51175;51.186;0.276;2023-06-19T02:01:08;100542.66;;;23.19;56.01
64739;BME280;51175;51.186;0.276;2023-06-19T02:01:39;100541.88;;;23.19;56.18
64739;BME280;51175;51.186;0.276;2023-06-19T02:02:09;100536.47;;;23.19;55.95
64739;BME280;51175;51.186;0.276;2023-06-19T02:02:40;100551.09;;;23.18;56.14
64739;BME280;51175;51.186;0.276;2023-06-19T02:03:11;100538.38;;;23.18;55.94
64739;BME280;51175;51.186;0.276;2023-06-19T02:03:41;100536.47;;;23.19;56.02
64739;BME280;51175;51.186;0.276;2023-06-19T02:04:11;100540.31;;;23.18;56.06
64739;BME280;51175;51.186;0.276;2023-06-19T02:04:42;100541.88;;;23.19;56.11
64739;BME280;51175;51.186;0.276;2023-06-19T02:05:12;100546.47;;;23.18;56.08
64739;BME280;51175;51.186;0.276;2023-06-19T02:05:44;100539.53;;;23.17;56.15
64739;BME280;51175;51.186;0.276;2023-06-19T02:06:14;100545.69;;;23.18;56.11
64739;BME280;51175;51.186;0.276;2023-06-19T02:06:44;100537.28;;;23.19;55.81
64739;BME280;51175;51.186;0.276;2023-06-19T02:07:15;100540.31;;;23.18;56.15
64739;BME280;51175;51.186;0.276;2023-06-19T02:07:46;100545.69;;;23.18;56.05
64739;BME280;51175;51.186;0.276;2023-06-19T02:08:16;100544.13;;;23.17;56.04
64739;BME280;51175;51.186;0.276;2023-06-19T02:08:47;100544.91;;;23.17;56.08
64739;BME280;51175;51.186;0.276;2023-06-19T02:09:18;100547.59;;;23.17;56.04
64739;BME280;51175;51.186;0.276;2023-06-19T02:09:49;100543.34;;;23.16;56.33
64739;BME280;51175;51.186;0.276;2023-06-19T02:10:19;100546.81;;;23.17;56.00
64739;BME280;51175;51.186;0.276;2023-06-19T02:10:50;100540.66;;;23.16;56.21
64739;BME280;51175;51.186;0.276;2023-06-19T02:11:20;100537.97;;;23.16;56.03
64739;BME280;51175;51.186;0.276;2023-06-19T02:11:50;100542.56;;;23.16;56.08
64739;BME280;51175;51.186;0.276;2023-06-19T02:12:21;100540.66;;;23.16;55.96
64739;BME280;51175;51.186;0.276;2023-06-19T02:12:51;100543.34;;;23.16;55.89
64739;BME280;51175;51.186;0.276;2023-06-19T02:13:22;100545.25;;;23.16;55.97
64739;BME280;51175;51.186;0.276;2023-06-19T02:13:52;100547.16;;;23.15;55.98
64739;BME280;51175;51.186;0.276;2023-06-19T02:14:22;100536.38;;;23.15;56.06
64739;BME280;51175;51.186;0.276;2023-06-19T02:14:53;100542.56;;;23.16;55.91
64739;BME280;51175;51.186;0.276;2023-06-19T02:15:23;100540.22;;;23.14;56.00
64739;BME280;51175;51.186;0.276;2023-06-19T02:15:54;100532.91;;;23.15;56.05
64739;BME280;51175;51.186;0.276;2023-06-19T02:16:24;100535.63;;;23.15;55.87
64739;BME280;51175;51.186;0.276;2023-06-19T02:16:55;100538.31;;;23.15;55.90
64739;BME280;51175;51.186;0.276;2023-06-19T02:17:25;100534.38;;;23.12;56.06
64739;BME280;51175;51.186;0.276;2023-06-19T02:17:55;100535.97;;;23.13;56.08
64739;BME280;51175;51.186;0.276;2023-06-19T02:18:26;100538.66;;;23.13;56.08
64739;BME280;51175;51.186;0.276;2023-06-19T02:18:57;100545.94;;;23.13;55.93
64739;BME280;51175;51.186;0.276;2023-06-19T02:19:27;100537.06;;;23.12;56.01
64739;BME280;51175;51.186;0.276;2023-06-19T02:19:57;100545.94;;;23.13;56.02
64739;BME280;51175;51.186;0.276;2023-06-19T02:20:28;100543.59;;;23.11;55.74
64739;BME280;51175;51.186;0.276;2023-06-19T02:20:58;100544.38;;;23.12;55.91
64739;BME280;51175;51.186;0.276;2023-06-19T02:21:29;100543.59;;;23.11;55.77
64739;BME280;51175;51.186;0.276;2023-06-19T02:21:59;100542.47;;;23.12;56.02
64739;BME280;51175;51.186;0.276;2023-06-19T02:22:30;100544.38;;;23.12;55.98
64739;BME280;51175;51.186;0.276;2023-06-19T02:23:00;100552.47;;;23.12;56.02
64739;BME280;51175;51.186;0.276;2023-06-19T02:23:30;100552.47;;;23.12;56.04
64739;BME280;51175;51.186;0.276;2023-06-19T02:24:01;100550.88;;;23.11;56.04
64739;BME280;51175;51.186;0.276;2023-06-19T02:24:31;100553.56;;;23.11;56.12
64739;BME280;51175;51.186;0.276;2023-06-19T02:25:02;100555.50;;;23.10;55.92
64739;BME280;51175;51.186;0.276;2023-06-19T02:25:33;100558.97;;;23.11;56.18
64739;BME280;51175;51.186;0.276;2023-06-19T02:26:05;100559.75;;;23.11;55.89
64739;BME280;51175;51.186;0.276;2023-06-19T02:26:35;100552.81;;;23.10;55.93
64739;BME280;51175;51.186;0.276;2023-06-19T02:27:06;100560.09;;;23.10;56.08
64739;BME280;51175;51.186;0.276;2023-06-19T02:27:37;100560.09;;;23.10;55.93
64739;BME280;51175;51.186;0.276;2023-06-19T02:28:07;100563.59;;;23.10;55.87
64739;BME280;51175;51.186;0.276;2023-06-19T02:28:38;100562.00;;;23.09;56.12
64739;BME280;51175;51.186;0.276;2023-06-19T02:29:08;100565.47;;;23.10;56.03
64739;BME280;51175;51.186;0.276;2023-06-19T02:29:39;100559.31;;;23.09;56.15
64739;BME280;51175;51.186;0.276;2023-06-19T02:30:10;100567.38;;;23.09;56.08
64739;BME280;51175;51.186;0.276;2023-06-19T02:30:40;100558.53;;;23.09;56.00
64739;BME280;51175;51.186;0.276;2023-06-19T02:31:11;100563.94;;;23.09;55.90
64739;BME280;51175;51.186;0.276;2023-06-19T02:31:42;100562.34;;;23.07;56.05
64739;BME280;51175;51.186;0.276;2023-06-19T02:32:12;100570.41;;;23.07;56.08
64739;BME280;51175;51.186;0.276;2023-06-19T02:32:43;100566.16;;;23.06;55.99
64739;BME280;51175;51.186;0.276;2023-06-19T02:33:13;100558.09;;;23.06;55.85
64739;BME280;51175;51.186;0.276;2023-06-19T02:33:44;100566.97;;;23.07;56.04
64739;BME280;51175;51.186;0.276;2023-06-19T02:34:15;100566.16;;;23.06;56.11
64739;BME280;51175;51.186;0.276;2023-06-19T02:34:45;100567.31;;;23.05;56.01
64739;BME280;51175;51.186;0.276;2023-06-19T02:35:19;100564.63;;;23.05;55.90
64739;BME280;51175;51.186;0.276;2023-06-19T02:35:49;100560.34;;;23.04;56.02
64739;BME280;51175;51.186;0.276;2023-06-19T02:36:20;100561.47;;;23.03;55.89
64739;BME280;51175;51.186;0.276;2023-06-19T02:36:50;100567.66;;;23.04;55.99
64739;BME280;51175;51.186;0.276;2023-06-19T02:37:20;100569.56;;;23.03;55.83
64739;BME280;51175;51.186;0.276;2023-06-19T02:37:51;100568.00;;;23.02;55.85
64739;BME280;51175;51.186;0.276;2023-06-19T02:38:21;100574.94;;;23.03;56.02
64739;BME280;51175;51.186;0.276;2023-06-19T02:38:52;100570.69;;;23.02;55.98
64739;BME280;51175;51.186;0.276;2023-06-19T02:39:23;100569.91;;;23.02;55.87
64739;BME280;51175;51.186;0.276;2023-06-19T02:39:54;100573.38;;;23.02;56.21
64739;BME280;51175;51.186;0.276;2023-06-19T02:40:24;100574.50;;;23.01;56.20
64739;BME280;51175;51.186;0.276;2023-06-19T02:40:55;100574.50;;;23.01;56.10
64739;BME280;51175;51.186;0.276;2023-06-19T02:41:27;100571.78;;;23.01;55.98
64739;BME280;51175;51.186;0.276;2023-06-19T02:41:58;100576.41;;;23.01;56.01
64739;BME280;51175;51.186;0.276;2023-06-19T02:42:28;100571.03;;;23.01;55.91
64739;BME280;51175;51.186;0.276;2023-06-19T02:42:59;100579.88;;;23.01;56.08
64739;BME280;51175;51.186;0.276;2023-06-19T02:43:29;100573.72;;;23.01;56.04
64739;BME280;51175;51.186;0.276;2023-06-19T02:44:00;100578.31;;;23.00;56.05
64739;BME280;51175;51.186;0.276;2023-06-19T02:44:30;100580.22;;;23.00;55.96
64739;BME280;51175;51.186;0.276;2023-06-19T02:45:01;100575.63;;;23.00;56.08
64739;BME280;51175;51.186;0.276;2023-06-19T02:45:34;100581.00;;;23.00;55.96
64739;BME280;51175;51.186;0.276;2023-06-19T02:46:04;100582.13;;;22.99;56.05
64739;BME280;51175;51.186;0.276;2023-06-19T02:46:35;100583.25;;;22.98;55.88
64739;BME280;51175;51.186;0.276;2023-06-19T02:47:05;100577.88;;;22.98;56.02